LBPD

Details ICAO LBPD (PDV)
Name Plovdiv
Region Bulgaria
Timezone Europe/Sofia (UTC+3.0)
Plans Departing 56
Arriving 46
Stats Elevation 597 ft / 182 m (AMSL)
Location 42.067856° 24.850814°
Runways 1
Magnetic Variation 5.113° E
Sunrise 2018-05-28 02:51:06 UTC / 2018-05-28 05:51:06 Local
Sunset 2018-05-28 17:47:30 UTC / 2018-05-28 20:47:30 Local
Advertisement - Login to hide

Runways

ID Width Length Bearing (true) Bearing (mag) Surface Threshold Offset Overrun Length
12 164 ft / 50 m 8,200 ft / 2,500 m 127.33° 122.22° Asphalt 0 ft / 0 m 197 ft / 60 m
30 164 ft / 50 m 8,200 ft / 2,500 m 307.35° 302.24° Asphalt 0 ft / 0 m 295 ft / 90 m

Approach Navaids

Runway Type Ident Frequency Range Bearing (true) Bearing (mag) Slope Elevation
30 Localiser IPD 109.90 MHz 18 nm / 33 km 307.33° 302.21° - 597 ft / 182 m (AMSL)
30 Glidescope IPD 109.90 MHz 10 nm / 19 km 307.34° 302.23° 3.00° 597 ft / 182 m (AMSL)

Map

Weather


0- 5 10 15 20 25 30 35+ Temperature / ° C

Clouds and Precipitation
Forecast for 2018-05-28 00:00 UTC. Updated 5 hours ago

Ground ~20,000 ft ~40,000 ft Winds

METAR

Not found

TAF

TAF LBPD 272300Z 2800/2824 VRB04KT 9999 BKN040 TEMPO 2801/2805 5000 BR SCT015 BECMG 2808/2810 06010KT SCT060 PROB40 TEMPO 2810/2816 5000 TSRA FEW030CB BKN050 BECMG 2818/2820 VRB04KT CAVOK

Frequencies

Tower 119.60 MHz PLOVDIV TWR
Warning: Do not use this data for real-world aviation or navigation. No guarantee of current accuracy is given.